Time;durP1;ratioP1;P1;durP2;ratioP2;P2;SDS_P1;SDS_P2;PMS_P1;PMS_P2;Temp;Humidity;BMP_temperature;BMP_pressure;BME280_temperature;BME280_humidity;BME280_pressure;Samples;Min_cycle;Max_cycle;Signal;HPM_P1;HPM_P2
2023/03/03 00:00:05;;;;;;;3.95;2.70;;;20.30;67.50;;;;;;5045549;28;20655;-67
2023/03/03 00:02:32;;;;;;;3.10;2.85;;;20.30;67.40;;;;;;5046610;28;20195;-58
2023/03/03 00:05:00;;;;;;;3.80;2.90;;;20.30;67.40;;;;;;5041618;28;20219;-62
2023/03/03 00:07:26;;;;;;;4.72;4.28;;;20.30;67.40;;;;;;5038421;28;20540;-56
2023/03/03 00:09:53;;;;;;;4.90;3.08;;;20.30;67.50;;;;;;5049456;28;20193;-52
2023/03/03 00:12:24;;;;;;;3.67;3.35;;;20.30;67.40;;;;;;5044190;28;20679;-57
2023/03/03 00:14:50;;;;;;;3.67;3.15;;;20.30;67.50;;;;;;5045362;28;20195;-57
2023/03/03 00:17:22;;;;;;;3.55;3.25;;;20.30;67.60;;;;;;5046208;28;20195;-56
2023/03/03 00:19:49;;;;;;;3.78;3.00;;;20.20;67.50;;;;;;5051127;28;20192;-57
2023/03/03 00:22:29;;;;;;;3.28;2.80;;;20.20;67.60;;;;;;5047621;28;20286;-58
2023/03/03 00:24:55;;;;;;;3.58;3.28;;;20.20;67.60;;;;;;5041321;28;20635;-61
2023/03/03 00:27:29;;;;;;;5.03;3.20;;;20.20;68.40;;;;;;5049384;28;20204;-61
2023/03/03 00:29:57;;;;;;;3.05;2.22;;;20.30;67.60;;;;;;5042036;28;20199;-62
2023/03/03 00:32:26;;;;;;;3.72;2.80;;;20.30;67.60;;;;;;5050923;28;20203;-58
2023/03/03 00:34:55;;;;;;;3.28;2.97;;;20.30;67.60;;;;;;5049908;28;20192;-57
2023/03/03 00:37:28;;;;;;;3.42;2.88;;;20.30;67.60;;;;;;5043208;28;20291;-58
2023/03/03 00:40:01;;;;;;;4.35;3.25;;;20.20;67.40;;;;;;5042406;28;20563;-57
2023/03/03 00:42:29;;;;;;;3.20;3.00;;;20.20;67.40;;;;;;5048278;28;20285;-54
2023/03/03 00:44:57;;;;;;;2.45;2.25;;;20.20;67.40;;;;;;5050650;28;20218;-59
2023/03/03 00:47:27;;;;;;;2.92;2.63;;;20.20;67.40;;;;;;5049971;28;20207;-66
2023/03/03 00:49:55;;;;;;;3.60;2.65;;;20.20;67.40;;;;;;5048761;28;20737;-54
2023/03/03 00:52:23;;;;;;;2.90;2.70;;;20.20;67.30;;;;;;5047504;28;20200;-60
2023/03/03 00:54:51;;;;;;;3.70;3.40;;;20.20;67.30;;;;;;5041732;28;20195;-61
2023/03/03 00:57:18;;;;;;;4.50;2.60;;;20.20;67.30;;;;;;5043613;28;20211;-59
2023/03/03 00:59:45;;;;;;;3.78;2.97;;;20.20;67.30;;;;;;5051091;28;20214;-57
2023/03/03 01:02:11;;;;;;;3.88;3.28;;;20.20;67.30;;;;;;5050776;28;20206;-57
2023/03/03 01:04:40;;;;;;;3.40;3.10;;;20.20;67.30;;;;;;5042023;28;20606;-61
2023/03/03 01:07:07;;;;;;;3.22;2.65;;;20.20;67.30;;;;;;5050326;28;20199;-57
2023/03/03 01:09:33;;;;;;;3.45;2.75;;;20.20;67.30;;;;;;5051178;28;20203;-55
2023/03/03 01:12:01;;;;;;;3.63;2.85;;;20.20;67.30;;;;;;5045348;28;20214;-62
2023/03/03 01:14:28;;;;;;;3.63;3.33;;;20.20;67.30;;;;;;5045258;28;20204;-61
2023/03/03 01:16:55;;;;;;;3.17;2.70;;;20.20;67.30;;;;;;5051586;28;20196;-58
2023/03/03 01:19:21;;;;;;;3.65;2.70;;;20.20;67.30;;;;;;5042013;28;20199;-70
2023/03/03 01:21:48;;;;;;;2.60;2.40;;;20.20;67.30;;;;;;5043421;28;20219;-63
2023/03/03 01:24:15;;;;;;;2.53;2.30;;;20.20;67.20;;;;;;5046237;28;20191;-56
2023/03/03 01:26:42;;;;;;;3.28;2.97;;;20.20;67.20;;;;;;5045933;28;20579;-58
2023/03/03 01:29:10;;;;;;;3.30;2.80;;;20.20;67.20;;;;;;5046256;28;20203;-63
2023/03/03 01:31:36;;;;;;;4.35;3.00;;;20.20;67.20;;;;;;5047212;28;20200;-60
2023/03/03 01:34:03;;;;;;;3.58;2.80;;;20.20;67.20;;;;;;5046368;28;20191;-57
2023/03/03 01:36:30;;;;;;;2.50;2.30;;;20.20;67.10;;;;;;5042131;28;20667;-54
2023/03/03 01:38:56;;;;;;;3.28;2.40;;;20.20;67.10;;;;;;5046329;28;20187;-61
2023/03/03 01:41:27;;;;;;;3.28;2.70;;;20.20;67.20;;;;;;5050627;28;20207;-59
2023/03/03 01:43:54;;;;;;;2.83;2.50;;;20.20;67.10;;;;;;5042404;28;20207;-55
2023/03/03 01:46:37;;;;;;;3.33;2.53;;;20.20;67.20;;;;;;5050456;28;20219;-56
2023/03/03 01:49:10;;;;;;;2.55;2.33;;;20.20;67.10;;;;;;5048043;28;20191;-58
2023/03/03 01:51:42;;;;;;;3.90;2.25;;;20.10;67.00;;;;;;5042190;28;20214;-56
2023/03/03 01:54:14;;;;;;;2.70;2.50;;;20.10;67.00;;;;;;5045907;28;20199;-66
2023/03/03 01:56:42;;;;;;;2.47;2.28;;;20.10;67.00;;;;;;5045356;28;20196;-57
2023/03/03 01:59:14;;;;;;;2.30;2.10;;;20.10;67.00;;;;;;5051291;28;20207;-60
2023/03/03 02:01:42;;;;;;;3.35;3.00;;;20.10;67.00;;;;;;5050004;28;20675;-60
2023/03/03 02:04:09;;;;;;;2.88;2.58;;;20.10;67.00;;;;;;5048389;28;20199;-57
2023/03/03 02:06:39;;;;;;;2.95;2.65;;;20.10;67.00;;;;;;5050336;28;20234;-55
2023/03/03 02:09:11;;;;;;;3.70;2.95;;;20.10;67.00;;;;;;5051511;28;20808;-56
2023/03/03 02:11:41;;;;;;;2.50;2.30;;;20.10;67.00;;;;;;5040451;28;20218;-57
2023/03/03 02:14:08;;;;;;;2.65;2.45;;;20.10;67.00;;;;;;5043578;28;20679;-57
2023/03/03 02:16:35;;;;;;;3.50;2.40;;;20.10;66.90;;;;;;5048398;28;20207;-59
2023/03/03 02:19:05;;;;;;;3.05;2.78;;;20.10;66.90;;;;;;5045014;28;20196;-57
2023/03/03 02:21:31;;;;;;;3.13;2.67;;;20.10;67.00;;;;;;5049646;28;20227;-58
2023/03/03 02:24:05;;;;;;;3.55;2.10;;;20.10;67.00;;;;;;5048002;28;20203;-62
2023/03/03 02:26:39;;;;;;;3.22;2.95;;;20.10;67.00;;;;;;5045093;28;20219;-54
2023/03/03 02:29:06;;;;;;;2.78;2.33;;;20.10;66.90;;;;;;5050350;28;20199;-56
2023/03/03 02:31:33;;;;;;;3.33;3.03;;;20.10;66.90;;;;;;5049679;28;20648;-58
2023/03/03 02:34:00;;;;;;;3.90;3.13;;;20.10;67.00;;;;;;5046727;28;20556;-58
2023/03/03 02:36:28;;;;;;;2.60;2.40;;;20.10;67.00;;;;;;5043783;28;20564;-63
2023/03/03 02:39:02;;;;;;;3.58;2.90;;;20.10;67.00;;;;;;5050266;28;20187;-60
2023/03/03 02:41:32;;;;;;;2.53;2.33;;;20.10;67.00;;;;;;5042784;28;20196;-58
2023/03/03 02:44:03;;;;;;;2.88;2.38;;;20.10;67.00;;;;;;5046203;28;20210;-59
2023/03/03 02:46:34;;;;;;;2.25;2.05;;;20.10;67.00;;;;;;5047912;28;20219;-56
2023/03/03 02:49:00;;;;;;;4.15;2.50;;;20.10;67.00;;;;;;5043521;28;20219;-54
2023/03/03 02:51:27;;;;;;;3.08;2.72;;;20.10;67.00;;;;;;5046882;28;20211;-59
2023/03/03 02:53:54;;;;;;;2.35;2.08;;;20.10;67.00;;;;;;5049257;28;20648;-58
2023/03/03 02:56:21;;;;;;;2.25;2.05;;;20.10;67.00;;;;;;5042776;28;20214;-56
2023/03/03 02:58:47;;;;;;;2.55;2.35;;;20.10;67.00;;;;;;5048365;28;20202;-55
2023/03/03 03:01:16;;;;;;;2.67;2.47;;;20.10;67.80;;;;;;5045928;28;20199;-55
2023/03/03 03:03:42;;;;;;;2.53;2.33;;;20.10;67.00;;;;;;5047496;28;20210;-55
2023/03/03 03:06:09;;;;;;;3.38;2.70;;;20.10;67.00;;;;;;5048597;28;20226;-59
2023/03/03 03:08:36;;;;;;;2.65;2.45;;;20.10;67.00;;;;;;5050117;28;20226;-54
2023/03/03 03:11:03;;;;;;;2.90;2.58;;;20.10;66.90;;;;;;5047002;28;20195;-55
2023/03/03 03:13:30;;;;;;;3.38;2.85;;;20.10;67.00;;;;;;5045721;28;20199;-62
2023/03/03 03:15:57;;;;;;;3.10;2.72;;;20.10;67.00;;;;;;5046323;28;20655;-61
2023/03/03 03:18:26;;;;;;;2.47;2.28;;;20.10;67.00;;;;;;5049213;28;20211;-61
2023/03/03 03:20:52;;;;;;;3.20;2.45;;;20.10;66.90;;;;;;5038165;28;20203;-54
2023/03/03 03:23:20;;;;;;;3.15;2.85;;;20.10;66.90;;;;;;5045858;28;20231;-59
2023/03/03 03:25:47;;;;;;;2.38;2.10;;;20.10;66.90;;;;;;5047118;28;20552;-52
2023/03/03 03:28:15;;;;;;;2.47;2.28;;;20.10;66.90;;;;;;5047146;28;20206;-55
2023/03/03 03:30:44;;;;;;;2.53;2.33;;;20.10;66.90;;;;;;5045919;28;20218;-54
2023/03/03 03:33:11;;;;;;;3.45;2.70;;;20.10;66.90;;;;;;5048324;28;20200;-54
2023/03/03 03:35:44;;;;;;;2.55;2.35;;;20.10;67.00;;;;;;5044781;28;20203;-60
2023/03/03 03:38:11;;;;;;;2.45;2.25;;;20.10;66.90;;;;;;5048889;28;20556;-58
2023/03/03 03:40:38;;;;;;;2.25;2.05;;;20.10;66.90;;;;;;5047213;28;20207;-58
2023/03/03 03:43:05;;;;;;;2.50;2.30;;;20.10;66.80;;;;;;5047026;28;20204;-59
2023/03/03 03:45:32;;;;;;;2.35;2.15;;;20.00;66.70;;;;;;5047578;28;20219;-63
2023/03/03 03:47:58;;;;;;;3.20;2.10;;;20.00;66.70;;;;;;5049286;28;20195;-58
2023/03/03 03:50:26;;;;;;;2.50;2.30;;;20.10;66.80;;;;;;5043363;28;20191;-60
2023/03/03 03:52:54;;;;;;;2.65;2.45;;;20.10;66.80;;;;;;5051386;28;20195;-56
2023/03/03 03:55:21;;;;;;;2.80;2.50;;;20.00;66.70;;;;;;5045654;28;20200;-55
2023/03/03 03:57:48;;;;;;;3.22;2.72;;;20.00;66.70;;;;;;5051915;28;20195;-62
2023/03/03 04:00:15;;;;;;;3.17;2.85;;;20.00;66.70;;;;;;5051847;28;20198;-58
2023/03/03 04:02:42;;;;;;;3.13;2.65;;;20.00;66.70;;;;;;5053518;28;20199;-60
2023/03/03 04:05:09;;;;;;;2.42;1.92;;;20.00;66.60;;;;;;5045606;28;20207;-56
2023/03/03 04:07:36;;;;;;;2.42;2.22;;;20.00;66.70;;;;;;5050402;28;20651;-58
2023/03/03 04:10:05;;;;;;;2.97;2.50;;;20.00;66.70;;;;;;5048834;28;20192;-57
2023/03/03 04:12:37;;;;;;;2.65;2.30;;;20.00;66.70;;;;;;5051597;28;20207;-58
2023/03/03 04:15:05;;;;;;;2.70;2.45;;;20.00;66.70;;;;;;5049460;28;20638;-64
2023/03/03 04:17:32;;;;;;;2.85;2.00;;;20.00;66.60;;;;;;5044801;28;20206;-63
2023/03/03 04:19:58;;;;;;;3.25;2.70;;;20.00;66.70;;;;;;5050284;28;20207;-57
2023/03/03 04:22:25;;;;;;;2.20;2.00;;;20.00;66.70;;;;;;5043067;28;20211;-61
2023/03/03 04:24:52;;;;;;;2.78;2.58;;;20.00;66.60;;;;;;5043970;28;20548;-59
2023/03/03 04:27:20;;;;;;;3.47;2.60;;;20.00;66.60;;;;;;5044945;28;20706;-59
2023/03/03 04:29:47;;;;;;;2.50;2.17;;;20.00;66.60;;;;;;5047558;28;20188;-61
2023/03/03 04:32:14;;;;;;;2.53;2.33;;;20.00;66.60;;;;;;5046215;28;20218;-56
2023/03/03 04:34:40;;;;;;;2.15;1.95;;;20.00;66.60;;;;;;5050323;28;20195;-64
2023/03/03 04:37:07;;;;;;;2.60;2.40;;;20.00;66.70;;;;;;5048422;28;20550;-55
2023/03/03 04:39:34;;;;;;;2.22;1.60;;;20.00;66.60;;;;;;5051898;28;20191;-55
2023/03/03 04:42:00;;;;;;;2.20;1.92;;;20.00;66.60;;;;;;5048455;28;20283;-62
2023/03/03 04:44:28;;;;;;;2.50;1.73;;;20.00;66.60;;;;;;5053046;28;20274;-57
2023/03/03 04:46:55;;;;;;;2.45;2.22;;;20.00;66.60;;;;;;5046123;28;20246;-52
2023/03/03 04:49:22;;;;;;;2.70;2.45;;;20.00;66.50;;;;;;5051099;28;20549;-54
2023/03/03 04:51:49;;;;;;;2.40;2.20;;;20.00;66.50;;;;;;5048453;28;20203;-59
2023/03/03 04:54:15;;;;;;;2.40;2.17;;;20.00;66.60;;;;;;5053093;28;20195;-54
2023/03/03 04:56:42;;;;;;;2.13;1.92;;;20.00;66.50;;;;;;5047112;28;20210;-60
2023/03/03 04:59:09;;;;;;;2.20;2.00;;;20.00;66.50;;;;;;5045344;28;20192;-61
2023/03/03 05:01:37;;;;;;;2.92;2.63;;;20.00;66.50;;;;;;5049938;28;20199;-54
2023/03/03 05:04:04;;;;;;;2.17;1.98;;;20.00;66.60;;;;;;5049940;28;20203;-53
2023/03/03 05:06:31;;;;;;;2.70;2.50;;;20.00;66.60;;;;;;5050876;28;20215;-59
2023/03/03 05:08:57;;;;;;;1.92;1.80;;;20.00;66.50;;;;;;5048822;28;20203;-59
2023/03/03 05:11:27;;;;;;;2.40;2.00;;;20.00;66.50;;;;;;5047247;28;20694;-58
2023/03/03 05:13:55;;;;;;;2.03;1.83;;;20.00;66.50;;;;;;5051354;28;20196;-56
2023/03/03 05:16:21;;;;;;;2.15;1.95;;;20.00;66.50;;;;;;5049904;28;20203;-54
2023/03/03 05:18:49;;;;;;;2.47;2.13;;;20.00;66.50;;;;;;5050422;28;20207;-57
2023/03/03 05:21:16;;;;;;;2.47;1.92;;;20.00;66.50;;;;;;5044250;28;20199;-57
2023/03/03 05:23:43;;;;;;;3.00;2.70;;;20.00;66.40;;;;;;5040615;28;20215;-60
2023/03/03 05:26:10;;;;;;;2.30;2.10;;;20.00;66.40;;;;;;5045385;28;20726;-59
2023/03/03 05:28:36;;;;;;;2.42;2.15;;;20.00;66.50;;;;;;5049982;28;20199;-60
2023/03/03 05:31:03;;;;;;;2.22;1.98;;;20.00;66.40;;;;;;5048480;28;20200;-57
2023/03/03 05:33:30;;;;;;;2.58;2.00;;;20.00;66.40;;;;;;5043808;28;20659;-56
2023/03/03 05:35:58;;;;;;;2.47;2.28;;;20.00;66.40;;;;;;5046475;28;20188;-62
2023/03/03 05:38:25;;;;;;;2.35;2.05;;;20.00;66.40;;;;;;5046471;28;20307;-69
2023/03/03 05:40:53;;;;;;;2.50;2.30;;;20.00;67.20;;;;;;5043896;28;20318;-58
2023/03/03 05:43:19;;;;;;;2.55;2.05;;;20.00;66.40;;;;;;5049841;28;20215;-58
2023/03/03 05:45:46;;;;;;;2.25;2.05;;;20.00;66.40;;;;;;5048678;28;20609;-57
2023/03/03 05:48:13;;;;;;;3.03;2.72;;;20.00;66.40;;;;;;5044374;28;20227;-61
2023/03/03 05:50:39;;;;;;;2.10;1.90;;;20.00;66.40;;;;;;5046793;28;20214;-59
2023/03/03 05:53:07;;;;;;;2.28;2.08;;;20.00;66.30;;;;;;5050815;28;20659;-61
2023/03/03 05:55:34;;;;;;;2.20;2.00;;;20.00;66.30;;;;;;5048372;28;20196;-56
2023/03/03 05:58:01;;;;;;;2.92;2.70;;;20.00;66.40;;;;;;5048810;28;20191;-62
2023/03/03 06:00:28;;;;;;;2.50;2.30;;;20.00;66.40;;;;;;5044610;28;20206;-61
2023/03/03 06:02:54;;;;;;;2.97;2.58;;;20.00;66.40;;;;;;5043668;28;20195;-58
2023/03/03 06:05:21;;;;;;;2.20;2.00;;;20.00;66.20;;;;;;5046823;28;20234;-60
2023/03/03 06:07:48;;;;;;;2.60;2.40;;;20.00;66.20;;;;;;5045206;28;20223;-57
2023/03/03 06:10:16;;;;;;;3.15;2.38;;;19.90;66.10;;;;;;5043698;28;20200;-60
2023/03/03 06:12:43;;;;;;;2.30;2.10;;;20.00;66.20;;;;;;5050103;28;20199;-56
2023/03/03 06:15:10;;;;;;;2.30;2.10;;;19.90;66.10;;;;;;5047310;28;20196;-59
2023/03/03 06:17:37;;;;;;;2.30;2.13;;;19.90;66.10;;;;;;5046090;28;20583;-59
2023/03/03 06:20:05;;;;;;;3.17;2.60;;;19.90;66.10;;;;;;5047008;28;20187;-61
2023/03/03 06:22:32;;;;;;;2.22;2.03;;;20.00;66.30;;;;;;5043222;28;20703;-57
2023/03/03 06:24:59;;;;;;;2.60;2.05;;;20.00;66.20;;;;;;5048857;28;20211;-60
2023/03/03 06:27:27;;;;;;;2.58;2.35;;;20.00;66.20;;;;;;5043555;28;20226;-61
2023/03/03 06:29:54;;;;;;;2.55;2.28;;;20.00;66.20;;;;;;5049946;28;20540;-61
2023/03/03 06:32:20;;;;;;;1.75;1.65;;;20.00;66.20;;;;;;5046738;28;20290;-57
2023/03/03 06:34:47;;;;;;;1.80;1.70;;;20.00;66.20;;;;;;5049701;28;20591;-58
2023/03/03 06:37:14;;;;;;;2.22;2.00;;;20.00;66.10;;;;;;5040764;28;20196;-56
2023/03/03 06:39:40;;;;;;;2.30;2.10;;;20.00;67.00;;;;;;5044470;28;20670;-60
2023/03/03 06:42:08;;;;;;;2.15;1.95;;;19.90;66.80;;;;;;5045814;28;20192;-59
2023/03/03 06:44:36;;;;;;;3.70;2.67;;;20.00;66.20;;;;;;5042976;28;20270;-64
2023/03/03 06:47:04;;;;;;;2.42;2.20;;;20.00;66.10;;;;;;5043273;28;20222;-63
2023/03/03 06:49:31;;;;;;;3.88;1.90;;;20.00;66.10;;;;;;5047936;28;20222;-64
2023/03/03 06:52:01;;;;;;;7.03;1.70;;;20.00;66.20;;;;;;5042473;28;21669;-64
2023/03/03 06:54:28;;;;;;;3.38;2.40;;;20.00;66.30;;;;;;5045247;28;20199;-63
2023/03/03 06:56:59;;;;;;;3.08;1.73;;;20.00;66.30;;;;;;5042066;28;20664;-62
2023/03/03 06:59:27;;;;;;;2.67;1.90;;;20.10;66.50;;;;;;5042592;28;20552;-64
2023/03/03 07:01:56;;;;;;;2.30;2.10;;;20.10;66.60;;;;;;5046675;28;20203;-64
2023/03/03 07:04:29;;;;;;;2.25;2.05;;;20.10;66.70;;;;;;5051333;28;20195;-64
2023/03/03 07:06:57;;;;;;;2.72;1.85;;;20.10;66.70;;;;;;5046546;28;20622;-64
2023/03/03 07:09:25;;;;;;;2.95;2.75;;;20.20;66.90;;;;;;5049984;28;20200;-66
2023/03/03 07:11:53;;;;;;;1.80;1.67;;;20.20;67.10;;;;;;5042110;28;20196;-59
2023/03/03 07:14:20;;;;;;;2.13;1.92;;;20.20;67.10;;;;;;5051504;28;20573;-63
2023/03/03 07:16:51;;;;;;;1.97;1.77;;;20.20;67.90;;;;;;5039918;28;20219;-58
2023/03/03 07:19:23;;;;;;;1.90;1.60;;;20.30;67.30;;;;;;5047416;28;20826;-59
2023/03/03 07:21:51;;;;;;;1.70;1.60;;;20.30;67.30;;;;;;5047074;28;20478;-65
2023/03/03 07:24:26;;;;;;;2.50;2.30;;;20.30;67.40;;;;;;5050325;28;20564;-63
2023/03/03 07:26:54;;;;;;;5.60;1.60;;;20.30;67.40;;;;;;5035871;28;20509;-62
2023/03/03 07:29:25;;;;;;;2.10;1.57;;;20.40;67.50;;;;;;5040624;28;20463;-55
2023/03/03 07:31:55;;;;;;;1.80;1.50;;;20.40;67.50;;;;;;5042391;28;20458;-56
2023/03/03 07:34:24;;;;;;;1.97;1.77;;;20.40;67.50;;;;;;5045018;28;20454;-61
2023/03/03 07:36:55;;;;;;;2.00;1.70;;;20.40;67.50;;;;;;5041321;28;20453;-57
2023/03/03 07:39:30;;;;;;;2.20;1.87;;;20.40;67.50;;;;;;5048100;28;20872;-58
2023/03/03 07:42:11;;;;;;;2.23;2.03;;;20.40;67.50;;;;;;5041532;28;20454;-59
2023/03/03 07:44:38;;;;;;;1.97;1.63;;;20.40;67.60;;;;;;5047521;28;20457;-60
2023/03/03 07:47:19;;;;;;;1.75;1.65;;;20.40;67.60;;;;;;5042357;28;20511;-61
2023/03/03 07:49:48;;;;;;;1.83;1.63;;;20.50;67.70;;;;;;5043835;28;20227;-58
2023/03/03 07:52:28;;;;;;;2.03;1.83;;;20.50;67.80;;;;;;5038776;28;20499;-61
2023/03/03 07:54:56;;;;;;;1.90;1.70;;;20.50;67.80;;;;;;5042294;28;20218;-59
2023/03/03 07:57:25;;;;;;;2.30;2.10;;;20.50;67.80;;;;;;5041115;28;20199;-59
2023/03/03 07:59:54;;;;;;;3.00;2.33;;;20.50;67.80;;;;;;5043643;28;20579;-62
2023/03/03 08:02:42;;;;;;;3.27;2.40;;;20.50;67.80;;;;;;5046817;28;20203;-56
2023/03/03 08:05:36;;;;;;;2.93;2.63;;;20.40;67.30;;;;;;5042704;28;20466;-58
2023/03/03 08:08:16;;;;;;;4.00;2.30;;;20.40;67.30;;;;;;5026626;28;20489;-55
2023/03/03 08:10:47;;;;;;;3.07;2.20;;;20.40;67.30;;;;;;5045524;28;20646;-55
2023/03/03 08:13:18;;;;;;;2.42;2.20;;;20.50;67.50;;;;;;5049272;28;20791;-58
2023/03/03 08:15:46;;;;;;;3.23;2.70;;;20.50;67.50;;;;;;5043377;28;20284;-62
2023/03/03 08:18:23;;;;;;;2.40;2.20;;;20.50;67.40;;;;;;5046530;28;20822;-56
2023/03/03 08:20:54;;;;;;;2.30;2.10;;;20.50;67.40;;;;;;5046680;28;20478;-57
2023/03/03 08:23:21;;;;;;;2.10;1.83;;;20.50;67.50;;;;;;5047638;28;20223;-56
2023/03/03 08:25:49;;;;;;;2.30;2.10;;;20.50;67.40;;;;;;5050260;28;20574;-55
2023/03/03 08:28:16;;;;;;;2.25;2.05;;;20.50;67.50;;;;;;5042974;28;20474;-50
2023/03/03 08:30:45;;;;;;;2.67;2.00;;;20.50;67.50;;;;;;5044028;28;20191;-52
2023/03/03 08:33:12;;;;;;;2.40;2.20;;;20.50;67.50;;;;;;5045929;28;20465;-57
2023/03/03 08:35:39;;;;;;;2.35;2.15;;;20.50;67.50;;;;;;5043011;28;20454;-59
2023/03/03 08:38:08;;;;;;;2.13;1.90;;;20.50;67.50;;;;;;5049612;28;20394;-55
2023/03/03 08:40:35;;;;;;;2.50;2.30;;;20.50;67.50;;;;;;5042331;28;20222;-57
2023/03/03 08:43:02;;;;;;;2.30;2.10;;;20.50;67.50;;;;;;5045200;28;20469;-59
2023/03/03 08:45:28;;;;;;;2.40;1.98;;;20.50;67.60;;;;;;5046776;28;20199;-61
2023/03/03 08:47:55;;;;;;;2.25;2.05;;;20.50;67.60;;;;;;5040970;28;20224;-61
2023/03/03 08:50:22;;;;;;;1.80;1.70;;;20.50;67.60;;;;;;5051826;28;20650;-60
2023/03/03 08:52:50;;;;;;;2.30;1.77;;;20.50;67.70;;;;;;5051061;28;20457;-67
2023/03/03 08:55:18;;;;;;;2.60;1.77;;;20.50;67.80;;;;;;5049004;28;20473;-60
2023/03/03 08:57:45;;;;;;;2.55;2.17;;;20.50;67.80;;;;;;5048286;28;23254;-60
2023/03/03 09:00:16;;;;;;;2.10;1.90;;;20.50;67.80;;;;;;5049579;28;20286;-54
2023/03/03 09:02:43;;;;;;;2.40;2.20;;;20.60;67.90;;;;;;5045650;28;20457;-56
2023/03/03 09:05:10;;;;;;;3.20;2.10;;;20.50;67.10;;;;;;5041230;28;20459;-52
2023/03/03 09:07:37;;;;;;;2.03;1.80;;;20.40;67.00;;;;;;5049064;28;20219;-54
2023/03/03 09:10:05;;;;;;;2.17;2.00;;;20.40;67.30;;;;;;5042956;28;20454;-53
2023/03/03 09:12:35;;;;;;;2.78;2.50;;;20.40;67.40;;;;;;5042874;28;20466;-56
2023/03/03 09:15:15;;;;;;;5.63;2.77;;;20.40;67.40;;;;;;5041483;28;20212;-58
2023/03/03 09:17:42;;;;;;;4.25;1.88;;;20.40;67.70;;;;;;5046818;28;20961;-57
2023/03/03 09:20:23;;;;;;;3.67;1.73;;;20.40;67.40;;;;;;5048246;28;20258;-57
2023/03/03 09:22:50;;;;;;;2.77;1.87;;;20.40;67.40;;;;;;5047833;28;20480;-57
2023/03/03 09:25:26;;;;;;;2.27;1.93;;;20.50;67.40;;;;;;5047505;28;20471;-57
2023/03/03 09:27:55;;;;;;;2.60;2.40;;;20.50;67.40;;;;;;5043156;28;20485;-58
2023/03/03 09:30:38;;;;;;;2.60;2.40;;;20.50;67.30;;;;;;5041803;28;20199;-57
2023/03/03 09:33:22;;;;;;;2.47;2.27;;;20.50;67.30;;;;;;5046635;28;20571;-54
2023/03/03 09:35:52;;;;;;;2.90;1.57;;;20.50;67.50;;;;;;5044096;28;20921;-56
2023/03/03 09:38:27;;;;;;;3.23;2.40;;;20.50;67.30;;;;;;5048037;28;20945;-54
2023/03/03 09:41:24;;;;;;;1.90;1.80;;;20.50;67.30;;;;;;5043473;28;20497;-53
2023/03/03 09:44:17;;;;;;;1.83;1.70;;;20.40;67.10;;;;;;5044929;28;20464;-61
2023/03/03 09:46:55;;;;;;;2.80;2.50;;;20.40;67.10;;;;;;5041236;28;20208;-58
2023/03/03 09:49:31;;;;;;;1.95;1.75;;;20.40;67.10;;;;;;5042918;28;20219;-55
2023/03/03 09:52:11;;;;;;;2.40;2.20;;;20.40;67.10;;;;;;5043430;28;20191;-62
2023/03/03 09:54:51;;;;;;;2.13;1.90;;;20.40;67.10;;;;;;5041197;28;20529;-57
2023/03/03 09:57:23;;;;;;;3.25;2.40;;;20.40;67.10;;;;;;5043867;28;20559;-55
2023/03/03 10:00:19;;;;;;;3.00;2.70;;;20.40;67.10;;;;;;5049658;28;20648;-55
2023/03/03 10:03:01;;;;;;;3.40;2.40;;;20.40;67.90;;;;;;5035575;28;20192;-57
2023/03/03 10:05:41;;;;;;;3.05;1.98;;;20.40;67.00;;;;;;5044673;28;20821;-53
2023/03/03 10:08:36;;;;;;;2.13;1.50;;;20.40;67.00;;;;;;5045847;28;21241;-58
2023/03/03 10:11:13;;;;;;;2.78;2.08;;;20.40;66.90;;;;;;5040079;28;20192;-53
2023/03/03 10:13:51;;;;;;;2.20;2.00;;;20.40;67.00;;;;;;5046638;28;20203;-58
2023/03/03 10:16:39;;;;;;;2.30;2.00;;;20.40;67.70;;;;;;5045555;28;20187;-57
2023/03/03 10:19:14;;;;;;;2.77;2.33;;;20.40;66.90;;;;;;5047300;28;20683;-56
2023/03/03 10:21:48;;;;;;;2.80;2.35;;;20.40;66.90;;;;;;5041623;28;20477;-52
2023/03/03 10:24:25;;;;;;;4.10;2.60;;;20.40;66.90;;;;;;5048745;28;20188;-54
2023/03/03 10:27:05;;;;;;;6.80;3.10;;;20.30;66.50;;;;;;5048448;28;20532;-56
2023/03/03 10:29:38;;;;;;;7.47;3.40;;;20.20;66.90;;;;;;5038605;28;20222;-63
2023/03/03 10:32:30;;;;;;;6.25;3.60;;;20.20;65.60;;;;;;5048690;28;20199;-62
2023/03/03 10:35:22;;;;;;;6.50;2.95;;;20.30;65.70;;;;;;5046286;28;20641;-56
2023/03/03 10:38:00;;;;;;;3.13;2.70;;;20.30;65.50;;;;;;5050131;28;20606;-58
2023/03/03 10:40:35;;;;;;;5.80;3.70;;;20.40;65.70;;;;;;5046949;28;20489;-58
2023/03/03 10:43:28;;;;;;;6.15;2.70;;;20.40;65.80;;;;;;5045400;28;20841;-60
2023/03/03 10:46:34;;;;;;;3.80;2.90;;;20.50;65.90;;;;;;5045464;28;20195;-66
2023/03/03 10:49:22;;;;;;;5.00;2.90;;;20.50;66.00;;;;;;5008344;28;20215;-60
2023/03/03 10:52:02;;;;;;;5.60;2.40;;;20.40;65.90;;;;;;5053593;28;20198;-61
2023/03/03 10:54:50;;;;;;;2.60;2.40;;;20.50;66.10;;;;;;5047035;28;20472;-63
2023/03/03 10:57:25;;;;;;;2.50;2.27;;;20.50;66.20;;;;;;5047396;28;20458;-60
2023/03/03 11:00:13;;;;;;;2.00;1.80;;;20.50;66.40;;;;;;5046189;28;20464;-64
2023/03/03 11:02:52;;;;;;;2.83;2.50;;;20.50;66.40;;;;;;5040965;28;20461;-62
2023/03/03 11:05:31;;;;;;;2.87;2.40;;;20.60;66.50;;;;;;5050055;28;20657;-63
2023/03/03 11:08:03;;;;;;;2.83;2.60;;;20.60;66.60;;;;;;5036491;28;20490;-59
2023/03/03 11:10:50;;;;;;;3.75;2.95;;;20.60;66.70;;;;;;5040784;28;20467;-62
2023/03/03 11:13:24;;;;;;;3.67;3.00;;;20.60;66.70;;;;;;5044775;28;20602;-63
2023/03/03 11:16:13;;;;;;;2.40;2.08;;;20.60;66.80;;;;;;5043817;28;20493;-67
2023/03/03 11:19:00;;;;;;;2.57;2.20;;;20.60;66.80;;;;;;5048081;28;20220;-60
2023/03/03 11:21:33;;;;;;;3.03;2.63;;;20.60;66.80;;;;;;5044321;28;21006;-59
2023/03/03 11:24:13;;;;;;;2.75;2.35;;;20.60;66.90;;;;;;5053199;28;20539;-54
2023/03/03 11:27:06;;;;;;;2.63;2.43;;;20.60;66.90;;;;;;5045297;28;20563;-54
2023/03/03 11:29:49;;;;;;;2.50;2.30;;;20.60;66.90;;;;;;5037827;28;20573;-62
2023/03/03 11:32:24;;;;;;;2.60;2.20;;;20.60;66.90;;;;;;5044342;28;20469;-65
2023/03/03 11:35:00;;;;;;;3.30;2.75;;;20.60;66.90;;;;;;5045554;28;20828;-65
2023/03/03 11:37:35;;;;;;;3.30;2.70;;;20.60;67.00;;;;;;5048001;28;20198;-68
2023/03/03 11:40:12;;;;;;;2.70;2.50;;;20.60;67.00;;;;;;5046282;28;20996;-65
2023/03/03 11:42:49;;;;;;;3.43;2.37;;;20.60;67.00;;;;;;5046350;28;20940;-61
2023/03/03 11:45:19;;;;;;;3.00;2.80;;;20.60;67.00;;;;;;5046852;28;20786;-52
2023/03/03 11:47:53;;;;;;;3.28;2.55;;;20.60;67.00;;;;;;5048833;28;20458;-56
2023/03/03 11:50:22;;;;;;;2.72;2.50;;;20.60;67.00;;;;;;5044409;28;20199;-61
2023/03/03 11:52:55;;;;;;;2.60;2.40;;;20.60;67.00;;;;;;5047891;28;20195;-63
2023/03/03 11:55:27;;;;;;;3.10;2.60;;;20.60;67.00;;;;;;5047349;28;20909;-63
2023/03/03 11:57:59;;;;;;;2.70;2.50;;;20.60;67.00;;;;;;5038249;28;20469;-61
2023/03/03 12:00:31;;;;;;;3.20;2.33;;;20.60;67.00;;;;;;5043733;28;20473;-63
2023/03/03 12:03:14;;;;;;;2.70;2.23;;;20.60;67.10;;;;;;5047446;28;20461;-63
2023/03/03 12:05:55;;;;;;;2.50;2.30;;;20.60;67.00;;;;;;5047705;28;20815;-62
2023/03/03 12:08:36;;;;;;;3.30;2.33;;;20.60;67.00;;;;;;5050583;28;20477;-65
2023/03/03 12:11:10;;;;;;;2.67;2.30;;;20.70;67.20;;;;;;5048571;28;20457;-57
2023/03/03 12:13:48;;;;;;;2.10;1.90;;;20.60;67.00;;;;;;5047781;28;20458;-66
2023/03/03 12:16:22;;;;;;;2.73;2.27;;;20.70;67.20;;;;;;5045707;28;20470;-62
2023/03/03 12:19:02;;;;;;;3.40;2.57;;;20.70;67.20;;;;;;5047148;28;20465;-61
2023/03/03 12:21:43;;;;;;;2.35;2.00;;;20.70;67.20;;;;;;5048597;28;20481;-63
2023/03/03 12:24:29;;;;;;;3.60;3.10;;;20.70;67.20;;;;;;5051989;28;20196;-67
2023/03/03 12:27:08;;;;;;;2.40;2.20;;;20.70;67.10;;;;;;5045552;28;20465;-55
2023/03/03 12:29:45;;;;;;;2.33;2.13;;;20.70;67.10;;;;;;5043461;28;20904;-62
2023/03/03 12:32:22;;;;;;;2.47;2.20;;;20.70;67.10;;;;;;5049548;28;20812;-55
2023/03/03 12:34:54;;;;;;;2.47;1.90;;;20.70;67.10;;;;;;5051171;28;20454;-61
2023/03/03 12:37:34;;;;;;;3.10;2.47;;;20.80;67.20;;;;;;5052501;28;20464;-62
2023/03/03 12:40:08;;;;;;;3.10;2.73;;;20.80;67.20;;;;;;5048138;28;20458;-61
2023/03/03 12:42:49;;;;;;;2.50;1.87;;;20.80;67.60;;;;;;5045095;28;20461;-63
2023/03/03 12:45:26;;;;;;;1.97;1.77;;;20.80;67.20;;;;;;5048805;28;20462;-62
2023/03/03 12:47:59;;;;;;;2.90;2.20;;;20.80;67.20;;;;;;5049380;28;20457;-62
2023/03/03 12:50:36;;;;;;;3.37;2.20;;;20.80;67.20;;;;;;5044347;28;20469;-68
2023/03/03 12:53:14;;;;;;;1.60;1.50;;;20.80;67.20;;;;;;5048405;28;20464;-62
2023/03/03 12:55:51;;;;;;;2.57;1.90;;;20.80;67.10;;;;;;5048715;28;20450;-66
2023/03/03 12:58:31;;;;;;;2.33;2.13;;;20.80;67.20;;;;;;5048379;28;20472;-63
2023/03/03 13:01:10;;;;;;;2.57;2.37;;;20.80;67.10;;;;;;5051977;28;20465;-60
2023/03/03 13:03:43;;;;;;;3.00;2.40;;;20.80;67.20;;;;;;5047703;28;20687;-63
2023/03/03 13:06:20;;;;;;;3.70;2.13;;;20.80;67.20;;;;;;5047885;28;20454;-65
2023/03/03 13:08:57;;;;;;;3.17;2.70;;;20.80;67.20;;;;;;5056480;28;20484;-69